ПСЧ-55

Карта отелей и гостиниц, располагающихся рядом с аэропортом ПСЧ-55 :

ПСЧ-55 Ивановская область 57° 26' 20.9796" N, 41° 28' 52.1508" E
Код аэродрома ИКАО
HE1Z
Код аэродрома RU
ХЕ1З
Координаты
N57.43916° E041.48115°
Превышение над уровнем моря
150
Основная полоса
04/22
Курс магнитный
036/216
Длина основной ВПП
20
Ширина основной ВПП
20
Покрытие основной ВПП
Твёрдое
Освещение ВПП
Нет
Тип: 
Вертодром
Класс аэродрома: 
Принадлежность: 
МЧС
Статус: 
Действующий
Сайт: 
E-mail аэродрома: 
Страна: 
Россия
Регион: 
Ивановская область
Город: 
Дополнительная информация: 
Владелец ПП: Пожарно-спасательная часть ПСЧ-55 по охране п. Спасское Приволжского района ФГКУ «1-й пожарно-спасательный отряд федеральной противопожарной службы по Ивановской области» (35 чел., 6 ед. техники).

Найти трансфер

С помощью этой формы Вы можете найти трансфер из аэропорта ПСЧ-55 в город, аэропорт или вокзал:

Карта места

Javascript is required to view this map.

Погода в аэропортах:

Авиационная погода в Угольном

Регион: 
Погода METAR: 
UHMA 281300Z 02002MPS 9000 -SN FEW027 BKN038 M19/M21 Q1019 R01/////// TEMPO 3000 -SN RMK TDZ R01/02002MPS END R01/04001G02MPS QFE760/1014
Время наблюдения
2021-11-28T13:00:00Z
Температура C
-19.0
Точка росы
-21.0
Направление ветра
20
Скорость ветра (узлы)
4
Метео видимость
5.59
Явления погоды
-SN
Условия полета
VFR
Аэропорт подробнее: 

Авиационная погода в Игнатьево

Регион: 
Погода METAR: 
UHBB 281300Z 33002MPS 4200 -SHSN BKN033CB M09/M10 Q1022 R36/821060 NOSIG RMK QFE749/0998
Время наблюдения
2021-11-28T13:00:00Z
Температура C
-9.0
Точка росы
-10.0
Направление ветра
330
Скорость ветра (узлы)
4
Метео видимость
2.61
Явления погоды
-SHSN
Условия полета
IFR
Аэропорт подробнее: 

Авиационная погода в Пулково

Регион: 
Погода METAR: 
ULLI 281300Z 04005MPS 3900 -SHSN SCT009 BKN018CB OVC036 M03/M04 Q1002 RESHSN R88/490535 NOSIG
Время наблюдения
2021-11-28T13:00:00Z
Температура C
-3.0
Точка росы
-4.0
Направление ветра
40
Скорость ветра (узлы)
10
Метео видимость
2.42
Явления погоды
-SHSN
Условия полета
IFR
Аэропорт подробнее: 

Авиационная погода в Ивало

Регион: 
Погода METAR: 
EFIV 281320Z AUTO 00000KT 9999 -SHSN OVC030 M22/M25 Q1009
Время наблюдения
2021-11-28T13:20:00Z
Температура C
-22.0
Точка росы
-25.0
Направление ветра
0
Скорость ветра (узлы)
0
Метео видимость
6.21
Явления погоды
-SHSN
Условия полета
MVFR